Time;durP1;ratioP1;P1;durP2;ratioP2;P2;SDS_P1;SDS_P2;PMS_P1;PMS_P2;Temp;Humidity;BMP_temperature;BMP_pressure;BME280_temperature;BME280_humidity;BME280_pressure;Samples;Min_cycle;Max_cycle;Signal;HPM_P1;HPM_P2
2023/06/25 00:01:17;;;;;;;7.53;6.83;;;;;;;13.96;100.00;96834.00;7399655;19;20879;-69
2023/06/25 00:03:44;;;;;;;7.57;6.97;;;;;;;13.75;100.00;96849.28;7401563;19;20370;-70
2023/06/25 00:06:12;;;;;;;8.30;7.40;;;;;;;13.45;100.00;96852.19;7397141;19;20450;-70
2023/06/25 00:08:39;;;;;;;11.73;8.30;;;;;;;13.19;100.00;96841.09;7399666;19;20374;-70
2023/06/25 00:11:06;;;;;;;9.47;7.80;;;;;;;13.03;100.00;96857.63;7397337;19;20466;-70
2023/06/25 00:13:33;;;;;;;8.13;7.50;;;;;;;13.03;100.00;96830.31;7399673;19;20414;-70
2023/06/25 00:16:00;;;;;;;9.93;8.37;;;;;;;13.01;100.00;96841.25;7396506;19;20421;-70
2023/06/25 00:18:27;;;;;;;9.43;8.50;;;;;;;13.12;100.00;96823.03;7399322;19;20446;-70
2023/06/25 00:20:54;;;;;;;7.13;6.53;;;;;;;13.05;100.00;96809.50;7398091;19;20384;-70
2023/06/25 00:23:21;;;;;;;11.80;7.17;;;;;;;12.86;100.00;96825.97;7399615;19;20380;-71
2023/06/25 00:25:48;;;;;;;10.43;7.80;;;;;;;13.02;100.00;96845.47;7396907;19;20750;-70
2023/06/25 00:28:15;;;;;;;8.43;7.63;;;;;;;13.16;100.00;96839.84;7399020;19;20416;-70
2023/06/25 00:30:42;;;;;;;8.47;7.20;;;;;;;13.15;100.00;96827.69;7396884;19;20743;-70
2023/06/25 00:33:09;;;;;;;8.03;6.70;;;;;;;12.98;100.00;96833.97;7399374;19;20370;-70
2023/06/25 00:36:06;;;;;;;13.80;8.17;;;;;;;12.80;100.00;96829.91;7396308;19;20433;-70
2023/06/25 00:38:37;;;;;;;8.87;7.83;;;;;;;13.08;100.00;96826.66;7396702;19;20401;-70
2023/06/25 00:41:08;;;;;;;7.80;7.10;;;;;;;13.30;100.00;96847.53;7399022;19;20362;-70
2023/06/25 00:43:41;;;;;;;8.40;6.87;;;;;;;13.35;100.00;96836.66;7399208;19;20343;-70
2023/06/25 00:46:15;;;;;;;8.30;7.50;;;;;;;13.20;100.00;96834.66;7397086;19;20433;-70
2023/06/25 00:48:47;;;;;;;8.33;7.53;;;;;;;13.00;100.00;96833.63;7399178;19;20386;-70
2023/06/25 00:51:16;;;;;;;8.17;6.60;;;;;;;12.51;100.00;96822.84;7395400;19;20384;-70
2023/06/25 00:53:44;;;;;;;7.87;6.57;;;;;;;12.62;100.00;96800.13;7397883;19;20397;-69
2023/06/25 00:56:11;;;;;;;7.83;7.13;;;;;;;12.89;100.00;96824.53;7394806;19;20430;-70
2023/06/25 00:58:42;;;;;;;8.00;7.30;;;;;;;13.02;100.00;96818.91;7399309;19;20344;-69
2023/06/25 01:01:18;;;;;;;9.50;8.57;;;;;;;12.77;100.00;96804.03;7396123;19;20380;-69
2023/06/25 01:03:54;;;;;;;8.43;6.90;;;;;;;12.97;100.00;96807.75;7397372;19;20747;-70
2023/06/25 01:06:33;;;;;;;7.20;6.60;;;;;;;12.84;100.00;96787.59;7394621;19;20794;-70
2023/06/25 01:09:01;;;;;;;10.13;7.90;;;;;;;12.68;100.00;96813.94;7398466;19;20390;-70
2023/06/25 01:11:28;;;;;;;11.40;8.57;;;;;;;12.68;100.00;96806.75;7396181;19;20394;-70
2023/06/25 01:13:56;;;;;;;10.30;9.30;;;;;;;12.40;100.00;96766.78;7395198;19;20380;-70
2023/06/25 01:16:23;;;;;;;11.57;10.40;;;;;;;12.56;100.00;96795.38;7395152;19;20746;-70
2023/06/25 01:18:50;;;;;;;13.07;10.67;;;;;;;12.72;100.00;96813.00;7395234;19;20377;-70
2023/06/25 01:21:31;;;;;;;10.83;9.93;;;;;;;12.02;100.00;96800.63;7399441;19;20412;-69
2023/06/25 01:23:59;;;;;;;11.10;9.90;;;;;;;11.98;100.00;96805.81;7395420;19;20376;-70
2023/06/25 01:26:26;;;;;;;9.57;8.67;;;;;;;12.13;100.00;96801.81;7396404;19;20416;-69
2023/06/25 01:28:55;;;;;;;8.63;7.80;;;;;;;12.22;100.00;96794.56;7395452;19;20396;-69
2023/06/25 01:31:30;;;;;;;8.10;7.40;;;;;;;12.47;100.00;96799.97;7396779;19;20370;-69
2023/06/25 01:33:59;;;;;;;8.03;7.33;;;;;;;12.59;100.00;96795.47;7395873;19;20401;-69
2023/06/25 01:36:26;;;;;;;9.73;8.03;;;;;;;12.54;100.00;96765.72;7395776;19;20447;-69
2023/06/25 01:38:54;;;;;;;8.33;7.53;;;;;;;12.09;100.00;96755.84;7398622;19;20433;-68
2023/06/25 01:41:21;;;;;;;9.80;8.20;;;;;;;12.64;100.00;96794.50;7398607;19;20372;-69
2023/06/25 01:43:48;;;;;;;9.43;7.70;;;;;;;12.27;100.00;96757.22;7397499;19;20389;-69
2023/06/25 01:46:14;;;;;;;5.97;5.43;;;;;;;12.71;100.00;96797.41;7396713;19;20469;-70
2023/06/25 01:48:41;;;;;;;6.77;6.13;;;;;;;12.78;100.00;96800.28;7396665;19;20366;-70
2023/06/25 01:51:08;;;;;;;7.57;6.70;;;;;;;12.38;100.00;96773.53;7397359;19;20384;-71
2023/06/25 01:53:35;;;;;;;7.13;6.43;;;;;;;12.41;100.00;96791.44;7397125;19;20416;-70
2023/06/25 01:56:02;;;;;;;6.47;5.83;;;;;;;12.11;100.00;96756.28;7396858;19;20441;-70
2023/06/25 01:58:29;;;;;;;8.03;6.00;;;;;;;12.10;100.00;96770.66;7396665;19;20367;-69
2023/06/25 02:00:57;;;;;;;8.57;6.37;;;;;;;11.88;100.00;96763.78;7397863;19;20379;-70
2023/06/25 02:03:24;;;;;;;7.60;6.53;;;;;;;12.09;100.00;96774.41;7396810;19;20725;-70
2023/06/25 02:05:51;;;;;;;8.50;6.40;;;;;;;12.12;100.00;96752.53;7393366;19;20437;-69
2023/06/25 02:08:18;;;;;;;8.23;6.67;;;;;;;11.59;100.00;96687.00;7395346;19;20400;-70
2023/06/25 02:10:45;;;;;;;6.13;5.63;;;;;;;12.24;100.00;96763.19;7393505;19;20750;-70
2023/06/25 02:13:14;;;;;;;6.40;5.80;;;;;;;12.11;100.00;96761.59;7396358;19;20399;-70
2023/06/25 02:15:42;;;;;;;7.20;6.50;;;;;;;11.86;100.00;96747.44;7392545;19;20440;-70
2023/06/25 02:18:13;;;;;;;6.30;5.47;;;;;;;12.14;100.00;96755.63;7397097;19;20378;-70
2023/06/25 02:20:40;;;;;;;8.67;6.03;;;;;;;12.14;100.00;96745.81;7394404;19;20412;-70
2023/06/25 02:23:07;;;;;;;6.80;6.20;;;;;;;12.27;100.00;96732.59;7395445;19;20381;-70
2023/06/25 02:25:34;;;;;;;7.67;6.20;;;;;;;12.14;100.00;96747.69;7392599;19;20996;-70
2023/06/25 02:28:01;;;;;;;6.40;5.80;;;;;;;11.74;100.00;96723.50;7395092;19;20694;-70
2023/06/25 02:30:28;;;;;;;7.57;6.53;;;;;;;12.07;100.00;96750.88;7394321;19;20406;-70
2023/06/25 02:32:55;;;;;;;6.20;5.60;;;;;;;11.95;100.00;96729.63;7394769;19;20345;-70
2023/06/25 02:35:22;;;;;;;15.63;7.43;;;;;;;11.88;100.00;96723.28;7392201;19;20425;-70
2023/06/25 02:37:49;;;;;;;10.60;5.83;;;;;;;11.94;100.00;96743.97;7395583;19;20372;-70
2023/06/25 02:40:16;;;;;;;7.20;6.30;;;;;;;11.81;100.00;96756.38;7394076;19;20706;-70
2023/06/25 02:42:43;;;;;;;8.90;6.63;;;;;;;11.59;100.00;96732.81;7395113;19;20369;-70
2023/06/25 02:45:10;;;;;;;9.40;7.00;;;;;;;11.57;100.00;96750.13;7392727;19;20421;-70
2023/06/25 02:47:37;;;;;;;6.73;6.13;;;;;;;11.53;100.00;96744.69;7395287;19;20380;-70
2023/06/25 02:50:05;;;;;;;6.90;6.20;;;;;;;11.57;100.00;96750.13;7400462;19;20437;-70
2023/06/25 02:52:33;;;;;;;9.70;6.57;;;;;;;11.34;100.00;96744.34;7400780;19;20377;-70
2023/06/25 02:55:00;;;;;;;9.13;5.90;;;;;;;11.32;100.00;96723.47;7399809;19;20452;-70
2023/06/25 02:57:29;;;;;;;12.60;6.30;;;;;;;11.38;100.00;96745.25;7402092;19;20905;-70
2023/06/25 02:59:57;;;;;;;7.07;6.37;;;;;;;11.27;100.00;96747.50;7400440;19;20891;-70
2023/06/25 03:02:24;;;;;;;7.30;5.53;;;;;;;11.17;100.00;96716.88;7402465;19;20404;-70
2023/06/25 03:04:52;;;;;;;6.63;6.03;;;;;;;11.28;100.00;96741.09;7400583;19;20408;-70
2023/06/25 03:07:19;;;;;;;7.67;7.00;;;;;;;11.04;100.00;96714.44;7402325;19;20376;-70
2023/06/25 03:09:47;;;;;;;7.80;6.30;;;;;;;11.12;100.00;96740.88;7400859;19;20368;-69
2023/06/25 03:12:14;;;;;;;6.73;5.90;;;;;;;11.28;100.00;96742.97;7400712;19;20389;-70
2023/06/25 03:14:42;;;;;;;7.20;6.50;;;;;;;11.26;100.00;96738.00;7400730;19;20376;-70
2023/06/25 03:17:09;;;;;;;7.00;6.10;;;;;;;11.27;100.00;96699.84;7399100;19;20456;-70
2023/06/25 03:19:36;;;;;;;7.70;6.20;;;;;;;11.28;100.00;96712.00;7401427;19;20365;-70
2023/06/25 03:22:03;;;;;;;7.60;6.93;;;;;;;11.53;100.00;96732.22;7399223;19;20384;-70
2023/06/25 03:24:33;;;;;;;7.97;6.33;;;;;;;11.59;100.00;96716.16;7400434;19;20401;-70
2023/06/25 03:27:01;;;;;;;7.63;6.93;;;;;;;11.73;100.00;96753.75;7399090;19;20372;-70
2023/06/25 03:29:28;;;;;;;7.17;6.40;;;;;;;11.71;100.00;96751.44;7400693;19;20444;-70
2023/06/25 03:31:56;;;;;;;7.97;7.10;;;;;;;11.62;100.00;96748.06;7396425;19;20754;-70
2023/06/25 03:34:24;;;;;;;7.63;6.80;;;;;;;11.53;100.00;96740.19;7400430;19;20722;-70
2023/06/25 03:36:53;;;;;;;7.50;6.80;;;;;;;11.25;100.00;96723.22;7396423;19;20492;-70
2023/06/25 03:39:21;;;;;;;8.60;7.07;;;;;;;11.65;100.00;96744.00;7400751;19;20369;-70
2023/06/25 03:41:48;;;;;;;7.93;7.13;;;;;;;11.74;100.00;96752.66;7399335;19;20425;-70
2023/06/25 03:44:15;;;;;;;8.30;7.50;;;;;;;11.49;100.00;96741.16;7400371;19;20815;-70
2023/06/25 03:46:42;;;;;;;7.00;6.40;;;;;;;11.25;100.00;96734.59;7397101;19;20452;-70
2023/06/25 03:49:10;;;;;;;8.97;7.00;;;;;;;11.47;100.00;96730.09;7400619;19;20389;-70
2023/06/25 03:51:36;;;;;;;6.23;5.57;;;;;;;11.53;100.00;96726.16;7398113;19;20710;-70
2023/06/25 03:54:05;;;;;;;7.70;6.13;;;;;;;11.38;100.00;96719.56;7402606;19;20786;-70
2023/06/25 03:56:34;;;;;;;7.13;6.53;;;;;;;11.61;100.00;96737.78;7397542;19;20436;-69
2023/06/25 03:59:01;;;;;;;9.30;6.33;;;;;;;11.54;100.00;96736.44;7399766;19;20341;-70
2023/06/25 04:01:28;;;;;;;13.10;6.60;;;;;;;11.57;100.00;96739.53;7398759;19;20368;-70
2023/06/25 04:03:55;;;;;;;8.03;6.20;;;;;;;11.54;100.00;96736.44;7400141;19;20364;-70
2023/06/25 04:06:22;;;;;;;7.40;6.70;;;;;;;11.57;100.00;96736.88;7396508;19;20428;-70
2023/06/25 04:08:49;;;;;;;8.40;7.50;;;;;;;11.78;100.00;96735.03;7399657;19;20373;-70
2023/06/25 04:11:16;;;;;;;6.23;5.73;;;;;;;11.77;100.00;96705.13;7398259;19;20408;-70
2023/06/25 04:13:44;;;;;;;7.47;6.70;;;;;;;12.00;100.00;96724.09;7399143;19;20361;-70
2023/06/25 04:16:11;;;;;;;8.77;7.63;;;;;;;12.22;100.00;96727.50;7396182;19;20985;-70
2023/06/25 04:18:41;;;;;;;7.10;6.47;;;;;;;12.24;100.00;96749.94;7399730;19;20908;-70
2023/06/25 04:21:08;;;;;;;6.27;5.77;;;;;;;12.43;100.00;96739.63;7398690;19;20744;-70
2023/06/25 04:23:35;;;;;;;7.73;6.43;;;;;;;12.11;100.00;96682.06;7397128;19;20369;-70
2023/06/25 04:26:04;;;;;;;8.67;7.30;;;;;;;12.24;100.00;96742.00;7396672;19;20439;-70
2023/06/25 04:28:31;;;;;;;7.83;7.03;;;;;;;12.17;100.00;96715.25;7396589;19;20753;-70
2023/06/25 04:31:00;;;;;;;8.97;7.50;;;;;;;12.39;100.00;96736.06;7398639;19;20397;-70
2023/06/25 04:33:27;;;;;;;8.07;6.60;;;;;;;12.11;100.00;96709.34;7394868;19;20416;-70
2023/06/25 04:35:54;;;;;;;9.13;7.50;;;;;;;12.55;100.00;96744.16;7398306;19;20856;-70
2023/06/25 04:38:21;;;;;;;7.17;6.47;;;;;;;12.69;100.00;96747.31;7396627;19;20730;-70
2023/06/25 04:40:48;;;;;;;8.47;6.77;;;;;;;13.02;100.00;96749.91;7398242;19;20447;-70
2023/06/25 04:43:15;;;;;;;7.13;6.53;;;;;;;13.24;100.00;96753.25;7396169;19;20920;-70
2023/06/25 04:45:42;;;;;;;7.77;7.03;;;;;;;13.33;100.00;96740.63;7396555;19;20476;-70
2023/06/25 04:48:09;;;;;;;7.57;6.53;;;;;;;13.19;100.00;96719.72;7396076;19;20731;-70
2023/06/25 04:50:36;;;;;;;7.97;6.90;;;;;;;13.28;100.00;96746.94;7397806;19;20372;-70
2023/06/25 04:53:03;;;;;;;7.80;7.10;;;;;;;13.40;100.00;96724.13;7398828;19;20358;-70
2023/06/25 04:55:30;;;;;;;7.67;6.87;;;;;;;13.87;100.00;96743.72;7406862;19;20396;-71
2023/06/25 04:57:57;;;;;;;8.17;7.37;;;;;;;14.26;100.00;96740.59;7404154;19;20346;-71
2023/06/25 05:00:24;;;;;;;12.93;8.23;;;;;;;14.09;100.00;96739.03;7401320;19;20368;-70
2023/06/25 05:02:51;;;;;;;8.40;7.60;;;;;;;14.28;100.00;96727.75;7396023;19;20377;-70
2023/06/25 05:05:18;;;;;;;8.77;7.63;;;;;;;14.00;100.00;96728.50;7396807;19;20995;-70
2023/06/25 05:07:45;;;;;;;9.43;8.20;;;;;;;14.22;100.00;96729.09;7396637;19;20381;-70
2023/06/25 05:10:14;;;;;;;8.07;7.27;;;;;;;14.42;100.00;96722.78;7397732;19;20760;-70
2023/06/25 05:12:42;;;;;;;10.10;8.37;;;;;;;14.41;100.00;96747.84;7394091;19;20379;-70
2023/06/25 05:15:09;;;;;;;8.70;7.90;;;;;;;14.21;100.00;96723.03;7397083;19;20422;-70
2023/06/25 05:17:36;;;;;;;9.30;8.33;;;;;;;14.33;100.00;96724.84;7397842;19;20366;-70
2023/06/25 05:20:04;;;;;;;8.90;7.93;;;;;;;14.54;100.00;96728.06;7397522;19;20380;-70
2023/06/25 05:22:31;;;;;;;9.60;8.70;;;;;;;14.79;100.00;96721.50;7397335;19;20364;-70
2023/06/25 05:24:58;;;;;;;8.27;7.57;;;;;;;15.37;100.00;96752.91;7396431;19;20414;-70
2023/06/25 05:27:25;;;;;;;11.60;8.73;;;;;;;15.42;100.00;96754.53;7395742;19;20346;-70
2023/06/25 05:29:52;;;;;;;8.60;7.90;;;;;;;15.79;100.00;96749.66;7397792;19;20366;-70
2023/06/25 05:32:19;;;;;;;9.90;8.13;;;;;;;15.98;100.00;96760.34;7396480;19;20869;-70
2023/06/25 05:34:46;;;;;;;9.27;8.47;;;;;;;15.98;100.00;96746.22;7396820;19;20374;-70
2023/06/25 05:37:13;;;;;;;9.67;8.67;;;;;;;16.23;100.00;96763.50;7397273;19;20378;-70
2023/06/25 05:39:40;;;;;;;8.67;7.83;;;;;;;16.09;100.00;96766.66;7398862;19;20359;-70
2023/06/25 05:42:07;;;;;;;9.73;8.83;;;;;;;16.39;100.00;96774.88;7396948;19;20403;-70
2023/06/25 05:44:34;;;;;;;10.50;8.47;;;;;;;16.23;100.00;96742.94;7396506;19;20339;-71
2023/06/25 05:47:01;;;;;;;8.87;7.97;;;;;;;16.47;100.00;96751.78;7395653;19;20406;-71
2023/06/25 05:49:28;;;;;;;8.23;7.43;;;;;;;16.35;100.00;96747.34;7396759;19;20374;-70
2023/06/25 05:51:54;;;;;;;8.47;7.70;;;;;;;16.43;100.00;96737.59;7395288;19;20374;-70
2023/06/25 05:54:21;;;;;;;7.50;6.80;;;;;;;16.73;100.00;96759.91;7397143;19;20375;-71
2023/06/25 05:56:48;;;;;;;8.80;7.93;;;;;;;16.86;100.00;96759.72;7393898;19;20447;-70
2023/06/25 05:59:15;;;;;;;8.00;7.30;;;;;;;17.00;100.00;96738.59;7396507;19;20383;-71
2023/06/25 06:01:42;;;;;;;7.60;7.00;;;;;;;17.21;100.00;96746.16;7395033;19;20372;-70
2023/06/25 06:04:09;;;;;;;8.43;7.63;;;;;;;16.98;100.00;96757.66;7393488;19;20785;-71
2023/06/25 06:06:36;;;;;;;9.50;6.47;;;;;;;17.25;100.00;96723.72;7393430;19;20439;-71
2023/06/25 06:09:03;;;;;;;10.33;8.33;;;;;;;17.58;100.00;96731.06;7396744;19;20362;-70
2023/06/25 06:11:30;;;;;;;8.73;7.57;;;;;;;18.06;100.00;96757.31;7395194;19;20375;-71
2023/06/25 06:13:57;;;;;;;9.03;8.23;;;;;;;18.08;100.00;96755.81;7392238;19;20861;-70
2023/06/25 06:16:24;;;;;;;7.37;6.77;;;;;;;18.06;100.00;96751.97;7393165;19;20450;-71
2023/06/25 06:18:51;;;;;;;8.03;7.30;;;;;;;18.38;100.00;96746.97;7393336;19;20343;-71
2023/06/25 06:21:17;;;;;;;7.23;6.63;;;;;;;18.95;100.00;96758.25;7395123;19;20380;-71
2023/06/25 06:23:44;;;;;;;8.00;7.20;;;;;;;19.32;100.00;96753.56;7397682;19;20347;-71
2023/06/25 06:26:11;;;;;;;8.03;7.00;;;;;;;19.00;100.00;96758.69;7400272;19;20447;-71
2023/06/25 06:28:38;;;;;;;7.40;6.70;;;;;;;19.17;100.00;96757.31;7400866;19;20352;-70
2023/06/25 06:31:05;;;;;;;7.17;6.53;;;;;;;19.90;100.00;96758.19;7403827;19;20347;-70
2023/06/25 06:33:32;;;;;;;7.10;6.50;;;;;;;20.16;100.00;96756.38;7397198;19;20379;-71
2023/06/25 06:36:01;;;;;;;6.80;6.13;;;;;;;20.07;100.00;96768.25;7402115;19;20404;-70
2023/06/25 06:38:28;;;;;;;7.17;6.50;;;;;;;20.39;100.00;96767.56;7402205;19;20370;-71
2023/06/25 06:40:54;;;;;;;7.33;6.73;;;;;;;20.10;100.00;96757.88;7401918;19;20719;-71
2023/06/25 06:43:21;;;;;;;7.60;6.83;;;;;;;20.58;100.00;96769.97;7401205;19;20368;-71
2023/06/25 06:45:48;;;;;;;8.83;6.83;;;;;;;20.99;100.00;96777.72;7400816;19;20467;-71
2023/06/25 06:48:15;;;;;;;6.90;6.30;;;;;;;21.22;100.00;96755.81;7400356;19;20365;-71
2023/06/25 06:50:42;;;;;;;9.87;6.77;;;;;;;21.38;100.00;96772.38;7402092;19;20380;-71
2023/06/25 06:53:09;;;;;;;9.50;6.60;;;;;;;21.70;100.00;96783.09;7399171;19;20369;-71
2023/06/25 06:55:36;;;;;;;6.70;6.00;;;;;;;21.41;100.00;96774.31;7400578;19;20957;-71
2023/06/25 06:58:03;;;;;;;6.33;5.73;;;;;;;21.19;100.00;96765.44;7400315;19;20380;-71
2023/06/25 07:00:31;;;;;;;7.20;6.50;;;;;;;21.16;100.00;96781.56;7402010;19;20397;-71
2023/06/25 07:02:59;;;;;;;6.23;5.73;;;;;;;20.78;100.00;96756.94;7400299;19;20359;-71
2023/06/25 07:05:26;;;;;;;7.97;7.23;;;;;;;21.11;100.00;96761.22;7402270;19;20409;-71
2023/06/25 07:07:53;;;;;;;6.40;5.90;;;;;;;21.03;100.00;96764.28;7400119;19;20461;-71
2023/06/25 07:10:20;;;;;;;7.27;6.53;;;;;;;21.05;100.00;96757.34;7402143;19;20451;-71
2023/06/25 07:12:47;;;;;;;7.90;7.07;;;;;;;21.31;100.00;96774.31;7399255;19;20378;-71
2023/06/25 07:15:14;;;;;;;7.17;6.33;;;;;;;21.53;100.00;96771.22;7400902;19;20413;-71
2023/06/25 07:17:41;;;;;;;8.53;7.70;;;;;;;21.76;100.00;96772.69;7400454;19;20382;-71
2023/06/25 07:20:09;;;;;;;9.40;7.07;;;;;;;21.54;100.00;96756.59;7401673;19;21179;-71
2023/06/25 07:22:37;;;;;;;8.10;7.40;;;;;;;22.04;100.00;96756.47;7400142;19;20374;-71
2023/06/25 07:25:05;;;;;;;8.07;7.27;;;;;;;22.68;99.87;96768.88;7402239;19;20942;-71
2023/06/25 07:27:32;;;;;;;8.27;7.33;;;;;;;22.45;97.30;96758.63;7400221;19;20382;-71
2023/06/25 07:29:59;;;;;;;8.80;8.10;;;;;;;22.61;96.72;96777.81;7398307;19;20934;-71
2023/06/25 07:32:26;;;;;;;8.70;7.93;;;;;;;22.59;92.96;96787.44;7399940;19;20381;-71
2023/06/25 07:34:53;;;;;;;7.53;6.83;;;;;;;22.27;92.87;96777.56;7396541;19;20396;-71
2023/06/25 07:37:20;;;;;;;7.80;7.07;;;;;;;22.21;92.62;96776.44;7399528;19;20766;-71
2023/06/25 07:39:47;;;;;;;7.00;6.40;;;;;;;22.16;92.76;96760.66;7400061;19;20386;-71
2023/06/25 07:42:14;;;;;;;7.07;6.50;;;;;;;22.53;92.23;96779.00;7399872;19;20344;-71
2023/06/25 07:44:41;;;;;;;7.57;6.93;;;;;;;21.91;89.39;96778.84;7398271;19;20381;-71
2023/06/25 07:47:22;;;;;;;7.47;6.77;;;;;;;22.49;90.63;96764.78;7399936;19;20394;-71
2023/06/25 07:49:49;;;;;;;7.93;7.30;;;;;;;22.57;88.63;96773.56;7398315;19;20430;-71
2023/06/25 07:52:16;;;;;;;7.20;6.50;;;;;;;22.25;88.40;96771.81;7401446;19;20759;-71
2023/06/25 07:54:43;;;;;;;7.50;6.43;;;;;;;22.69;89.25;96748.84;7396482;19;20381;-71
2023/06/25 07:57:10;;;;;;;7.50;6.80;;;;;;;22.91;85.77;96771.84;7399886;19;20344;-71
2023/06/25 07:59:37;;;;;;;7.23;6.63;;;;;;;23.27;85.03;96752.72;7399536;19;20345;-71
2023/06/25 08:02:20;;;;;;;8.10;7.30;;;;;;;23.31;84.40;96758.84;7400519;19;20373;-71
2023/06/25 08:04:49;;;;;;;7.60;7.00;;;;;;;23.51;83.67;96772.56;7421132;19;20353;-71
2023/06/25 08:07:16;;;;;;;7.67;7.00;;;;;;;24.08;84.71;96756.53;7424298;19;20356;-71
2023/06/25 08:09:44;;;;;;;6.20;5.70;;;;;;;23.48;82.49;96743.63;7421081;19;20323;-71
2023/06/25 08:12:14;;;;;;;7.40;6.70;;;;;;;23.68;81.10;96766.25;7399653;19;20853;-71
2023/06/25 08:14:42;;;;;;;6.60;5.90;;;;;;;24.24;80.01;96741.69;7396857;19;20375;-71
2023/06/25 08:17:09;;;;;;;7.20;6.60;;;;;;;23.34;79.71;96749.94;7397699;19;20378;-71
2023/06/25 08:19:37;;;;;;;6.70;6.10;;;;;;;23.11;81.24;96755.16;7399071;19;20764;-71
2023/06/25 08:22:04;;;;;;;7.03;6.33;;;;;;;22.86;80.75;96748.03;7397078;19;20358;-71
2023/06/25 08:24:31;;;;;;;7.47;6.77;;;;;;;23.10;80.64;96756.31;7398171;19;20932;-71
2023/06/25 08:26:58;;;;;;;7.10;6.60;;;;;;;23.22;78.75;96739.63;7397322;19;20379;-71
2023/06/25 08:29:26;;;;;;;6.90;6.03;;;;;;;23.79;77.24;96747.22;7398574;19;20366;-71
2023/06/25 08:31:53;;;;;;;6.57;5.97;;;;;;;23.87;75.59;96737.88;7396827;19;20366;-71
2023/06/25 08:34:20;;;;;;;6.37;5.77;;;;;;;24.43;77.23;96752.63;7397241;19;20874;-72
2023/06/25 08:36:47;;;;;;;5.80;5.30;;;;;;;24.07;75.95;96730.69;7394921;19;20443;-71
2023/06/25 08:39:14;;;;;;;7.17;6.53;;;;;;;24.58;75.69;96750.53;7398279;19;20410;-71
2023/06/25 08:41:44;;;;;;;6.43;5.83;;;;;;;24.06;73.47;96688.63;7394765;19;20724;-71
2023/06/25 08:44:11;;;;;;;7.20;6.70;;;;;;;23.69;75.64;96743.47;7398468;19;20378;-71
2023/06/25 08:46:43;;;;;;;7.37;6.70;;;;;;;24.00;74.53;96705.69;7392060;19;20435;-71
2023/06/25 08:49:10;;;;;;;6.50;5.90;;;;;;;24.27;73.87;96717.31;7400148;19;20916;-71
2023/06/25 08:51:37;;;;;;;7.03;6.43;;;;;;;24.90;74.15;96735.78;7396924;19;20407;-71
2023/06/25 08:54:05;;;;;;;6.90;6.30;;;;;;;24.42;72.11;96729.47;7397416;19;20755;-71
2023/06/25 08:56:32;;;;;;;6.93;6.40;;;;;;;24.86;73.05;96741.25;7401364;19;20965;-71
2023/06/25 08:58:59;;;;;;;6.80;6.20;;;;;;;24.12;70.79;96718.66;7403433;19;20356;-71
2023/06/25 09:01:26;;;;;;;6.17;5.57;;;;;;;24.17;72.54;96729.81;7403591;19;20377;-71
2023/06/25 09:03:53;;;;;;;7.30;6.70;;;;;;;24.37;72.30;96718.38;7402690;19;20717;-72
2023/06/25 09:06:21;;;;;;;6.70;6.03;;;;;;;24.94;69.34;96745.34;7401086;19;20423;-71
2023/06/25 09:08:49;;;;;;;6.10;5.60;;;;;;;25.04;69.90;96735.56;7402501;19;20407;-72
2023/06/25 09:11:16;;;;;;;6.27;5.77;;;;;;;24.27;70.41;96725.41;7399837;19;20379;-71
2023/06/25 09:13:43;;;;;;;6.90;5.93;;;;;;;24.06;72.18;96712.19;7400824;19;20379;-71
2023/06/25 09:16:11;;;;;;;7.50;6.90;;;;;;;24.63;69.70;96716.84;7398613;19;20431;-71
2023/06/25 09:18:38;;;;;;;6.87;6.27;;;;;;;24.90;71.60;96711.41;7404553;19;20771;-72
2023/06/25 09:21:08;;;;;;;6.67;6.17;;;;;;;24.59;69.01;96721.56;7402743;19;20350;-71
2023/06/25 09:23:38;;;;;;;6.37;5.87;;;;;;;24.91;69.54;96711.00;7401482;19;20359;-72
2023/06/25 09:26:08;;;;;;;7.07;6.37;;;;;;;24.50;71.27;96705.06;7400856;19;20440;-71
2023/06/25 09:28:52;;;;;;;7.17;6.57;;;;;;;25.17;69.93;96706.75;7402214;19;20575;-73
2023/06/25 09:31:19;;;;;;;5.40;5.00;;;;;;;25.89;68.95;96707.00;7403415;19;20394;-70
2023/06/25 09:33:53;;;;;;;9.60;6.27;;;;;;;26.09;66.42;96712.41;7401474;19;20373;-70
2023/06/25 09:36:20;;;;;;;7.47;5.80;;;;;;;25.73;67.38;96720.47;7399815;19;20448;-71
2023/06/25 09:39:05;;;;;;;7.10;6.43;;;;;;;25.66;65.87;96712.47;7399322;19;20401;-70
2023/06/25 09:41:34;;;;;;;6.30;5.80;;;;;;;25.53;67.23;96696.06;7397432;19;20363;-71
2023/06/25 09:44:05;;;;;;;7.43;6.53;;;;;;;25.58;65.80;96711.06;7399773;19;20410;-71
2023/06/25 09:46:34;;;;;;;6.27;5.87;;;;;;;25.48;68.19;96707.34;7398336;19;20414;-71
2023/06/25 09:49:02;;;;;;;6.90;6.40;;;;;;;25.25;64.95;96691.91;7399484;19;20404;-70
2023/06/25 09:51:55;;;;;;;6.93;6.07;;;;;;;25.59;66.28;96707.94;7400409;19;20343;-71
2023/06/25 09:54:23;;;;;;;6.07;5.57;;;;;;;25.62;64.29;96703.63;7401843;19;20357;-71
2023/06/25 09:56:51;;;;;;;6.80;6.17;;;;;;;25.03;66.32;96674.50;7400753;19;20407;-71
2023/06/25 09:59:18;;;;;;;8.33;6.70;;;;;;;24.92;68.38;96696.28;7411977;19;20382;-71
2023/06/25 10:01:47;;;;;;;6.10;5.60;;;;;;;24.49;69.72;96671.84;7406938;19;20761;-70
2023/06/25 10:04:15;;;;;;;6.67;6.10;;;;;;;24.39;69.61;96668.13;7405120;19;20707;-71
2023/06/25 10:06:42;;;;;;;6.50;5.90;;;;;;;24.35;67.51;96674.75;7403484;19;20789;-70
2023/06/25 10:09:09;;;;;;;5.50;5.10;;;;;;;24.94;68.77;96675.00;7405638;19;20761;-71
2023/06/25 10:11:36;;;;;;;6.53;5.30;;;;;;;24.46;68.77;96654.53;7410082;19;20369;-71
2023/06/25 10:14:06;;;;;;;6.07;5.57;;;;;;;24.94;68.13;96666.88;7418949;19;20393;-70
2023/06/25 10:16:33;;;;;;;5.43;5.03;;;;;;;26.09;68.40;96681.81;7425442;19;20414;-70
2023/06/25 10:19:03;;;;;;;6.93;6.33;;;;;;;25.17;66.87;96670.78;7426077;19;20389;-70
2023/06/25 10:21:31;;;;;;;6.13;5.63;;;;;;;25.72;65.98;96677.53;7421397;19;20400;-70
2023/06/25 10:24:02;;;;;;;6.70;6.20;;;;;;;26.04;65.96;96687.72;7431378;19;20337;-70
2023/06/25 10:26:33;;;;;;;6.60;6.00;;;;;;;25.66;67.14;96679.97;7429860;19;20430;-70
2023/06/25 10:29:01;;;;;;;6.53;6.03;;;;;;;25.90;65.44;96676.00;7434219;19;20350;-70
2023/06/25 10:31:42;;;;;;;6.30;5.80;;;;;;;26.40;64.64;96645.13;7434815;19;20341;-71
2023/06/25 10:34:10;;;;;;;5.80;5.27;;;;;;;27.20;63.07;96680.84;7433020;19;20374;-71
2023/06/25 10:36:48;;;;;;;5.87;5.40;;;;;;;26.77;62.03;96675.69;7411786;19;20922;-71
2023/06/25 10:39:15;;;;;;;7.07;6.50;;;;;;;26.68;63.06;96673.53;7408520;19;20365;-71
2023/06/25 10:41:47;;;;;;;5.60;5.10;;;;;;;26.70;63.82;96652.19;7407720;19;20361;-71
2023/06/25 10:44:14;;;;;;;5.93;5.43;;;;;;;27.00;63.00;96675.50;7406798;19;20352;-71
2023/06/25 10:46:41;;;;;;;5.90;5.40;;;;;;;26.66;61.88;96669.75;7400531;19;20423;-69
2023/06/25 10:49:10;;;;;;;6.30;5.80;;;;;;;26.51;61.30;96661.16;7403677;19;20398;-69
2023/06/25 10:51:37;;;;;;;5.50;5.10;;;;;;;26.68;61.55;96667.34;7402315;19;20373;-69
2023/06/25 10:54:06;;;;;;;5.60;5.20;;;;;;;26.83;60.70;96667.78;7402543;19;20394;-69
2023/06/25 10:56:32;;;;;;;7.63;6.10;;;;;;;25.54;62.93;96659.66;7399090;19;20434;-69
2023/06/25 10:58:59;;;;;;;7.07;6.57;;;;;;;25.40;64.94;96646.41;7404756;19;20337;-69
2023/06/25 11:01:33;;;;;;;5.97;5.47;;;;;;;25.25;63.62;96631.59;7402320;19;20377;-69
2023/06/25 11:04:01;;;;;;;7.73;5.70;;;;;;;26.61;64.01;96653.97;7401289;19;20351;-69
2023/06/25 11:06:28;;;;;;;6.60;5.90;;;;;;;27.37;62.69;96657.13;7398976;19;20420;-69
2023/06/25 11:08:55;;;;;;;6.97;6.40;;;;;;;26.53;62.23;96596.41;7400434;19;20383;-70
2023/06/25 11:11:22;;;;;;;5.30;4.90;;;;;;;27.01;61.62;96644.47;7402842;19;20342;-69
2023/06/25 11:13:49;;;;;;;5.83;5.40;;;;;;;27.17;61.89;96621.97;7400289;19;20376;-69
2023/06/25 11:16:19;;;;;;;5.93;5.33;;;;;;;27.14;60.55;96627.50;7399033;19;20434;-69
2023/06/25 11:18:50;;;;;;;5.70;5.30;;;;;;;26.50;61.53;96640.66;7399645;19;20395;-69
2023/06/25 11:21:17;;;;;;;5.67;5.27;;;;;;;25.30;61.47;96633.81;7402845;19;20352;-69
2023/06/25 11:23:44;;;;;;;6.00;5.50;;;;;;;25.04;62.73;96597.56;7399480;19;20374;-69
2023/06/25 11:26:15;;;;;;;5.50;5.10;;;;;;;26.06;60.58;96634.66;7396622;19;20454;-68
2023/06/25 11:28:42;;;;;;;5.83;5.40;;;;;;;27.16;60.24;96623.16;7401139;19;20347;-68
2023/06/25 11:31:09;;;;;;;5.90;5.13;;;;;;;27.48;57.97;96635.88;7402558;19;20391;-68